sensor_id;sensor_type;location;lat;lon;timestamp;pressure;altitude;pressure_sealevel;temperature;humidity
20624;BME280;10471;42.736;23.346;2023-04-01T00:02:02;94693.28;;;9.43;100.00
20624;BME280;10471;42.736;23.346;2023-04-01T00:04:28;94692.22;;;9.44;100.00
20624;BME280;10471;42.736;23.346;2023-04-01T00:06:53;94695.84;;;9.48;100.00
20624;BME280;10471;42.736;23.346;2023-04-01T00:09:18;94708.00;;;9.44;100.00
20624;BME280;10471;42.736;23.346;2023-04-01T00:11:44;94700.59;;;9.46;100.00
20624;BME280;10471;42.736;23.346;2023-04-01T00:14:10;94702.09;;;9.52;100.00
20624;BME280;10471;42.736;23.346;2023-04-01T00:16:36;94692.09;;;9.54;100.00
20624;BME280;10471;42.736;23.346;2023-04-01T00:19:02;94691.56;;;9.52;100.00
20624;BME280;10471;42.736;23.346;2023-04-01T00:21:27;94693.88;;;9.40;100.00
20624;BME280;10471;42.736;23.346;2023-04-01T00:23:53;94687.44;;;9.46;100.00
20624;BME280;10471;42.736;23.346;2023-04-01T00:26:19;94685.13;;;9.45;100.00
20624;BME280;10471;42.736;23.346;2023-04-01T00:28:46;94687.34;;;9.38;100.00
20624;BME280;10471;42.736;23.346;2023-04-01T00:31:12;94683.84;;;9.42;100.00
20624;BME280;10471;42.736;23.346;2023-04-01T00:33:38;94685.41;;;9.43;100.00
20624;BME280;10471;42.736;23.346;2023-04-01T00:36:11;94677.94;;;9.50;100.00
20624;BME280;10471;42.736;23.346;2023-04-01T00:38:38;94686.31;;;9.52;100.00
20624;BME280;10471;42.736;23.346;2023-04-01T00:41:04;94672.69;;;9.50;100.00
20624;BME280;10471;42.736;23.346;2023-04-01T00:43:30;94671.19;;;9.44;100.00
20624;BME280;10471;42.736;23.346;2023-04-01T00:45:56;94656.69;;;9.47;100.00
20624;BME280;10471;42.736;23.346;2023-04-01T00:48:28;94655.34;;;9.49;100.00
20624;BME280;10471;42.736;23.346;2023-04-01T00:51:01;94649.31;;;9.49;100.00
20624;BME280;10471;42.736;23.346;2023-04-01T00:53:28;94642.28;;;9.44;100.00
20624;BME280;10471;42.736;23.346;2023-04-01T00:56:05;94644.97;;;9.39;100.00
20624;BME280;10471;42.736;23.346;2023-04-01T00:58:36;94640.84;;;9.33;100.00
20624;BME280;10471;42.736;23.346;2023-04-01T01:01:04;94636.78;;;9.41;100.00
20624;BME280;10471;42.736;23.346;2023-04-01T01:03:29;94628.06;;;9.45;100.00
20624;BME280;10471;42.736;23.346;2023-04-01T01:08:43;94625.56;;;9.54;100.00
20624;BME280;10471;42.736;23.346;2023-04-01T01:11:14;94617.38;;;9.55;100.00
20624;BME280;10471;42.736;23.346;2023-04-01T01:14:09;94609.78;;;9.54;100.00
20624;BME280;10471;42.736;23.346;2023-04-01T01:16:43;94614.84;;;9.50;100.00
20624;BME280;10471;42.736;23.346;2023-04-01T01:22:51;94605.94;;;9.46;100.00
20624;BME280;10471;42.736;23.346;2023-04-01T01:30:40;94601.94;;;9.35;100.00
20624;BME280;10471;42.736;23.346;2023-04-01T01:33:25;94606.09;;;9.36;100.00
20624;BME280;10471;42.736;23.346;2023-04-01T01:35:57;94595.66;;;9.31;100.00
20624;BME280;10471;42.736;23.346;2023-04-01T01:38:29;94588.06;;;9.30;100.00
20624;BME280;10471;42.736;23.346;2023-04-01T01:40:57;94591.75;;;9.29;100.00
20624;BME280;10471;42.736;23.346;2023-04-01T01:43:39;94584.75;;;9.24;100.00
20624;BME280;10471;42.736;23.346;2023-04-01T01:46:10;94594.03;;;9.17;100.00
20624;BME280;10471;42.736;23.346;2023-04-01T01:48:37;94589.13;;;9.11;100.00
20624;BME280;10471;42.736;23.346;2023-04-01T01:51:07;94593.09;;;9.08;100.00
20624;BME280;10471;42.736;23.346;2023-04-01T01:53:32;94589.28;;;9.01;100.00
20624;BME280;10471;42.736;23.346;2023-04-01T01:55:58;94594.88;;;8.94;100.00
20624;BME280;10471;42.736;23.346;2023-04-01T02:00:55;94587.91;;;8.85;100.00
20624;BME280;10471;42.736;23.346;2023-04-01T02:03:24;94581.66;;;8.81;100.00
20624;BME280;10471;42.736;23.346;2023-04-01T02:05:53;94578.97;;;8.67;100.00
20624;BME280;10471;42.736;23.346;2023-04-01T02:08:24;94580.00;;;8.66;100.00
20624;BME280;10471;42.736;23.346;2023-04-01T02:11:06;94574.06;;;8.61;100.00
20624;BME280;10471;42.736;23.346;2023-04-01T02:13:37;94558.88;;;8.58;100.00
20624;BME280;10471;42.736;23.346;2023-04-01T02:16:23;94566.13;;;8.66;100.00
20624;BME280;10471;42.736;23.346;2023-04-01T02:18:53;94568.44;;;8.67;100.00
20624;BME280;10471;42.736;23.346;2023-04-01T02:21:22;94561.09;;;8.69;100.00
20624;BME280;10471;42.736;23.346;2023-04-01T02:23:50;94561.50;;;8.76;100.00
20624;BME280;10471;42.736;23.346;2023-04-01T02:26:17;94555.47;;;8.76;100.00
20624;BME280;10471;42.736;23.346;2023-04-01T02:28:45;94562.28;;;8.77;100.00
20624;BME280;10471;42.736;23.346;2023-04-01T02:31:12;94567.47;;;8.63;100.00
20624;BME280;10471;42.736;23.346;2023-04-01T02:33:40;94563.34;;;8.57;100.00
20624;BME280;10471;42.736;23.346;2023-04-01T02:36:07;94570.00;;;8.50;100.00
20624;BME280;10471;42.736;23.346;2023-04-01T02:38:36;94571.19;;;8.39;100.00
20624;BME280;10471;42.736;23.346;2023-04-01T02:41:02;94570.75;;;8.32;100.00
20624;BME280;10471;42.736;23.346;2023-04-01T02:43:28;94585.59;;;8.18;100.00
20624;BME280;10471;42.736;23.346;2023-04-01T02:45:53;94577.13;;;8.26;100.00
20624;BME280;10471;42.736;23.346;2023-04-01T02:48:19;94592.97;;;8.16;100.00
20624;BME280;10471;42.736;23.346;2023-04-01T02:50:45;94583.41;;;8.25;100.00
20624;BME280;10471;42.736;23.346;2023-04-01T02:53:10;94591.47;;;8.34;100.00
20624;BME280;10471;42.736;23.346;2023-04-01T02:55:37;94589.00;;;8.42;100.00
20624;BME280;10471;42.736;23.346;2023-04-01T02:58:03;94604.69;;;8.47;100.00
20624;BME280;10471;42.736;23.346;2023-04-01T03:00:28;94604.47;;;8.20;100.00
20624;BME280;10471;42.736;23.346;2023-04-01T03:02:54;94599.56;;;8.37;100.00
20624;BME280;10471;42.736;23.346;2023-04-01T03:05:20;94596.88;;;8.42;100.00
20624;BME280;10471;42.736;23.346;2023-04-01T03:07:46;94597.88;;;8.46;100.00
20624;BME280;10471;42.736;23.346;2023-04-01T03:10:11;94602.25;;;8.50;100.00
20624;BME280;10471;42.736;23.346;2023-04-01T03:12:37;94595.72;;;8.48;100.00
20624;BME280;10471;42.736;23.346;2023-04-01T03:15:03;94613.47;;;8.38;100.00
20624;BME280;10471;42.736;23.346;2023-04-01T03:17:28;94598.66;;;8.47;100.00
20624;BME280;10471;42.736;23.346;2023-04-01T03:19:53;94599.28;;;8.39;100.00
20624;BME280;10471;42.736;23.346;2023-04-01T03:22:19;94594.75;;;8.44;100.00
20624;BME280;10471;42.736;23.346;2023-04-01T03:24:47;94597.72;;;8.38;100.00
20624;BME280;10471;42.736;23.346;2023-04-01T03:27:12;94609.50;;;8.40;100.00
20624;BME280;10471;42.736;23.346;2023-04-01T03:29:38;94609.50;;;8.40;100.00
20624;BME280;10471;42.736;23.346;2023-04-01T03:32:04;94595.84;;;8.38;100.00
20624;BME280;10471;42.736;23.346;2023-04-01T03:34:29;94604.31;;;8.35;100.00
20624;BME280;10471;42.736;23.346;2023-04-01T03:36:55;94606.34;;;8.38;100.00
20624;BME280;10471;42.736;23.346;2023-04-01T03:39:20;94596.75;;;8.52;100.00
20624;BME280;10471;42.736;23.346;2023-04-01T03:41:45;94596.06;;;8.65;100.00
20624;BME280;10471;42.736;23.346;2023-04-01T03:44:11;94593.50;;;8.60;100.00
20624;BME280;10471;42.736;23.346;2023-04-01T03:46:37;94574.28;;;8.64;100.00
20624;BME280;10471;42.736;23.346;2023-04-01T03:49:06;94559.66;;;8.77;100.00
20624;BME280;10471;42.736;23.346;2023-04-01T03:51:37;94546.97;;;8.84;100.00
20624;BME280;10471;42.736;23.346;2023-04-01T03:54:02;94538.16;;;8.93;100.00
20624;BME280;10471;42.736;23.346;2023-04-01T03:56:28;94542.56;;;8.98;100.00
20624;BME280;10471;42.736;23.346;2023-04-01T03:58:53;94530.63;;;9.05;100.00
20624;BME280;10471;42.736;23.346;2023-04-01T04:01:20;94521.88;;;9.10;100.00
20624;BME280;10471;42.736;23.346;2023-04-01T04:03:46;94514.00;;;9.10;100.00
20624;BME280;10471;42.736;23.346;2023-04-01T04:06:14;94503.50;;;9.10;100.00
20624;BME280;10471;42.736;23.346;2023-04-01T04:08:39;94497.66;;;9.13;100.00
20624;BME280;10471;42.736;23.346;2023-04-01T04:11:05;94492.09;;;9.14;100.00
20624;BME280;10471;42.736;23.346;2023-04-01T04:13:30;94479.75;;;9.14;100.00
20624;BME280;10471;42.736;23.346;2023-04-01T04:15:55;94479.75;;;9.14;100.00
20624;BME280;10471;42.736;23.346;2023-04-01T04:18:21;94465.53;;;9.15;100.00
20624;BME280;10471;42.736;23.346;2023-04-01T04:20:47;94469.25;;;9.14;100.00
20624;BME280;10471;42.736;23.346;2023-04-01T04:23:15;94466.88;;;9.13;100.00
20624;BME280;10471;42.736;23.346;2023-04-01T04:25:41;94460.84;;;9.13;100.00
20624;BME280;10471;42.736;23.346;2023-04-01T04:28:06;94462.97;;;9.11;100.00
20624;BME280;10471;42.736;23.346;2023-04-01T04:30:31;94448.06;;;8.93;100.00
20624;BME280;10471;42.736;23.346;2023-04-01T04:32:57;94448.84;;;8.75;100.00
20624;BME280;10471;42.736;23.346;2023-04-01T04:35:22;94445.75;;;8.73;100.00
20624;BME280;10471;42.736;23.346;2023-04-01T04:37:48;94438.94;;;8.72;100.00
20624;BME280;10471;42.736;23.346;2023-04-01T04:40:13;94434.81;;;8.66;100.00
20624;BME280;10471;42.736;23.346;2023-04-01T04:42:38;94425.28;;;8.70;100.00
20624;BME280;10471;42.736;23.346;2023-04-01T04:45:04;94420.97;;;8.79;100.00
20624;BME280;10471;42.736;23.346;2023-04-01T04:47:29;94421.00;;;8.74;100.00
20624;BME280;10471;42.736;23.346;2023-04-01T04:49:55;94429.19;;;8.72;100.00
20624;BME280;10471;42.736;23.346;2023-04-01T04:52:20;94435.63;;;8.80;100.00
20624;BME280;10471;42.736;23.346;2023-04-01T04:54:46;94425.06;;;8.85;100.00
20624;BME280;10471;42.736;23.346;2023-04-01T04:57:11;94423.44;;;8.89;100.00
20624;BME280;10471;42.736;23.346;2023-04-01T04:59:36;94418.19;;;8.89;100.00
20624;BME280;10471;42.736;23.346;2023-04-01T05:02:02;94419.25;;;8.88;100.00
20624;BME280;10471;42.736;23.346;2023-04-01T05:04:27;94417.16;;;8.85;100.00
20624;BME280;10471;42.736;23.346;2023-04-01T05:06:53;94411.75;;;8.95;100.00
20624;BME280;10471;42.736;23.346;2023-04-01T05:09:18;94411.53;;;9.10;100.00
20624;BME280;10471;42.736;23.346;2023-04-01T05:11:44;94400.31;;;9.17;100.00
20624;BME280;10471;42.736;23.346;2023-04-01T05:14:14;94391.94;;;9.15;100.00
20624;BME280;10471;42.736;23.346;2023-04-01T05:16:40;94395.84;;;9.18;100.00
20624;BME280;10471;42.736;23.346;2023-04-01T05:19:05;94384.97;;;9.24;100.00
20624;BME280;10471;42.736;23.346;2023-04-01T05:21:31;94374.44;;;9.24;100.00
20624;BME280;10471;42.736;23.346;2023-04-01T05:23:56;94372.03;;;9.28;100.00
20624;BME280;10471;42.736;23.346;2023-04-01T05:26:21;94377.44;;;9.31;100.00
20624;BME280;10471;42.736;23.346;2023-04-01T05:28:47;94378.44;;;9.35;100.00
20624;BME280;10471;42.736;23.346;2023-04-01T05:31:12;94379.53;;;9.34;100.00
20624;BME280;10471;42.736;23.346;2023-04-01T05:33:37;94386.16;;;9.45;100.00
20624;BME280;10471;42.736;23.346;2023-04-01T05:38:32;94386.91;;;9.59;100.00
20624;BME280;10471;42.736;23.346;2023-04-01T05:40:59;94393.84;;;9.69;100.00
20624;BME280;10471;42.736;23.346;2023-04-01T05:43:25;94387.13;;;9.76;100.00
20624;BME280;10471;42.736;23.346;2023-04-01T05:45:50;94395.38;;;9.83;100.00
20624;BME280;10471;42.736;23.346;2023-04-01T05:48:16;94399.97;;;9.77;100.00
20624;BME280;10471;42.736;23.346;2023-04-01T05:50:41;94382.44;;;10.00;100.00
20624;BME280;10471;42.736;23.346;2023-04-01T05:53:07;94387.25;;;10.20;100.00
20624;BME280;10471;42.736;23.346;2023-04-01T05:55:35;94371.63;;;10.37;100.00
20624;BME280;10471;42.736;23.346;2023-04-01T05:58:01;94378.03;;;10.66;100.00
20624;BME280;10471;42.736;23.346;2023-04-01T06:00:26;94363.78;;;10.89;100.00
20624;BME280;10471;42.736;23.346;2023-04-01T06:02:51;94357.84;;;11.05;100.00
20624;BME280;10471;42.736;23.346;2023-04-01T06:05:22;94374.44;;;11.36;100.00
20624;BME280;10471;42.736;23.346;2023-04-01T06:07:51;94375.69;;;11.69;100.00
20624;BME280;10471;42.736;23.346;2023-04-01T06:10:21;94365.66;;;11.96;100.00
20624;BME280;10471;42.736;23.346;2023-04-01T06:13:06;94365.25;;;12.28;100.00
20624;BME280;10471;42.736;23.346;2023-04-01T06:15:40;94361.66;;;12.66;100.00
20624;BME280;10471;42.736;23.346;2023-04-01T06:24:15;94363.22;;;13.46;100.00
20624;BME280;10471;42.736;23.346;2023-04-01T06:26:49;94365.34;;;13.61;100.00
20624;BME280;10471;42.736;23.346;2023-04-01T06:56:15;94321.13;;;14.60;97.62
20624;BME280;10471;42.736;23.346;2023-04-01T06:58:46;94312.00;;;14.69;97.63
20624;BME280;10471;42.736;23.346;2023-04-01T07:01:38;94316.19;;;14.70;95.85
20624;BME280;10471;42.736;23.346;2023-04-01T07:06:46;94326.03;;;14.49;93.91
20624;BME280;10471;42.736;23.346;2023-04-01T07:09:18;94324.50;;;14.48;99.46
20624;BME280;10471;42.736;23.346;2023-04-01T07:11:45;94318.53;;;14.51;95.59
20624;BME280;10471;42.736;23.346;2023-04-01T07:14:20;94320.09;;;14.52;97.31
20624;BME280;10471;42.736;23.346;2023-04-01T07:16:47;94307.25;;;14.75;96.69
20624;BME280;10471;42.736;23.346;2023-04-01T07:19:31;94292.19;;;14.99;94.63
20624;BME280;10471;42.736;23.346;2023-04-01T07:22:01;94297.09;;;15.21;91.36
20624;BME280;10471;42.736;23.346;2023-04-01T07:24:37;94305.88;;;15.33;89.88
20624;BME280;10471;42.736;23.346;2023-04-01T07:27:09;94313.75;;;15.42;87.86
20624;BME280;10471;42.736;23.346;2023-04-01T07:29:34;94320.16;;;15.41;88.35
20624;BME280;10471;42.736;23.346;2023-04-01T07:38:09;94298.91;;;15.29;89.78
20624;BME280;10471;42.736;23.346;2023-04-01T07:40:51;94312.84;;;15.26;87.21
20624;BME280;10471;42.736;23.346;2023-04-01T07:49:03;94295.16;;;15.42;82.90
20624;BME280;10471;42.736;23.346;2023-04-01T07:54:35;94286.84;;;15.67;79.77
20624;BME280;10471;42.736;23.346;2023-04-01T08:00:23;94299.59;;;15.85;78.11
20624;BME280;10471;42.736;23.346;2023-04-01T08:17:05;94259.56;;;16.18;74.79
20624;BME280;10471;42.736;23.346;2023-04-01T08:22:10;94245.69;;;16.24;77.13
20624;BME280;10471;42.736;23.346;2023-04-01T08:24:45;94231.50;;;16.32;77.06
20624;BME280;10471;42.736;23.346;2023-04-01T08:27:44;94232.63;;;16.31;79.18
20624;BME280;10471;42.736;23.346;2023-04-01T08:30:20;94235.78;;;16.48;79.27
20624;BME280;10471;42.736;23.346;2023-04-01T08:33:05;94207.94;;;16.73;79.95
20624;BME280;10471;42.736;23.346;2023-04-01T08:38:21;94205.06;;;17.40;68.85
20624;BME280;10471;42.736;23.346;2023-04-01T08:49:05;94185.66;;;18.45;56.76
20624;BME280;10471;42.736;23.346;2023-04-01T08:51:44;94171.97;;;18.47;58.75
20624;BME280;10471;42.736;23.346;2023-04-01T08:54:46;94173.56;;;18.70;58.27
20624;BME280;10471;42.736;23.346;2023-04-01T08:57:38;94172.50;;;18.97;58.57
20624;BME280;10471;42.736;23.346;2023-04-01T09:02:59;94167.78;;;19.58;53.35
20624;BME280;10471;42.736;23.346;2023-04-01T09:19:16;94163.56;;;20.08;48.12
20624;BME280;10471;42.736;23.346;2023-04-01T09:25:02;94160.63;;;19.91;47.71
20624;BME280;10471;42.736;23.346;2023-04-01T09:27:43;94163.31;;;19.91;46.10
20624;BME280;10471;42.736;23.346;2023-04-01T09:35:42;94138.06;;;19.88;47.53
20624;BME280;10471;42.736;23.346;2023-04-01T09:43:50;94123.00;;;20.06;45.75
20624;BME280;10471;42.736;23.346;2023-04-01T09:46:39;94108.66;;;20.21;45.60
20624;BME280;10471;42.736;23.346;2023-04-01T09:50:03;94105.81;;;20.40;46.47
20624;BME280;10471;42.736;23.346;2023-04-01T09:55:15;94097.69;;;20.69;45.43
20624;BME280;10471;42.736;23.346;2023-04-01T11:17:17;94003.44;;;18.23;51.44
20624;BME280;10471;42.736;23.346;2023-04-01T11:30:44;94014.25;;;18.30;52.51
20624;BME280;10471;42.736;23.346;2023-04-01T11:33:19;94049.38;;;17.94;51.30
20624;BME280;10471;42.736;23.346;2023-04-01T12:14:11;94265.34;;;11.32;100.00
20624;BME280;10471;42.736;23.346;2023-04-01T12:17:02;94247.38;;;11.42;100.00
20624;BME280;10471;42.736;23.346;2023-04-01T12:19:56;94255.00;;;11.52;100.00
20624;BME280;10471;42.736;23.346;2023-04-01T12:23:03;94247.91;;;11.53;100.00
20624;BME280;10471;42.736;23.346;2023-04-01T12:25:46;94259.56;;;11.69;100.00
20624;BME280;10471;42.736;23.346;2023-04-01T12:41:44;94271.16;;;11.51;100.00
20624;BME280;10471;42.736;23.346;2023-04-01T12:47:43;94261.19;;;11.48;100.00
20624;BME280;10471;42.736;23.346;2023-04-01T12:52:58;94257.97;;;11.51;100.00
20624;BME280;10471;42.736;23.346;2023-04-01T12:55:38;94250.22;;;11.54;100.00
20624;BME280;10471;42.736;23.346;2023-04-01T13:03:37;94227.09;;;11.68;100.00
20624;BME280;10471;42.736;23.346;2023-04-01T13:11:51;94212.38;;;12.09;100.00
20624;BME280;10471;42.736;23.346;2023-04-01T13:17:53;94205.63;;;12.37;100.00
20624;BME280;10471;42.736;23.346;2023-04-01T13:20:34;94202.94;;;12.54;100.00
20624;BME280;10471;42.736;23.346;2023-04-01T13:30:50;94176.63;;;13.40;100.00
20624;BME280;10471;42.736;23.346;2023-04-01T13:36:36;94151.59;;;13.90;100.00
20624;BME280;10471;42.736;23.346;2023-04-01T13:39:27;94145.22;;;14.12;100.00
20624;BME280;10471;42.736;23.346;2023-04-01T13:45:08;94127.25;;;14.85;100.00
20624;BME280;10471;42.736;23.346;2023-04-01T13:56:12;94116.28;;;14.87;100.00
20624;BME280;10471;42.736;23.346;2023-04-01T13:59:04;94121.47;;;14.71;100.00
20624;BME280;10471;42.736;23.346;2023-04-01T14:07:08;94118.13;;;15.58;100.00
20624;BME280;10471;42.736;23.346;2023-04-01T14:11:00;94105.78;;;16.04;100.00
20624;BME280;10471;42.736;23.346;2023-04-01T14:18:35;94107.66;;;17.08;100.00
20624;BME280;10471;42.736;23.346;2023-04-01T14:21:21;94092.59;;;17.15;100.00
20624;BME280;10471;42.736;23.346;2023-04-01T14:24:05;94099.69;;;16.93;100.00
20624;BME280;10471;42.736;23.346;2023-04-01T14:40:16;94051.19;;;17.71;100.00
20624;BME280;10471;42.736;23.346;2023-04-01T14:45:40;94059.31;;;17.40;100.00
20624;BME280;10471;42.736;23.346;2023-04-01T14:51:03;94058.44;;;17.02;100.00
20624;BME280;10471;42.736;23.346;2023-04-01T14:53:36;94053.50;;;17.19;100.00
20624;BME280;10471;42.736;23.346;2023-04-01T14:56:04;94060.47;;;17.58;100.00
20624;BME280;10471;42.736;23.346;2023-04-01T14:58:46;94056.94;;;17.92;100.00
20624;BME280;10471;42.736;23.346;2023-04-01T15:01:37;94064.41;;;17.83;95.62
20624;BME280;10471;42.736;23.346;2023-04-01T15:09:57;94078.63;;;17.72;100.00
20624;BME280;10471;42.736;23.346;2023-04-01T15:15:29;94077.28;;;17.43;100.00
20624;BME280;10471;42.736;23.346;2023-04-01T15:18:12;94081.63;;;17.32;100.00
20624;BME280;10471;42.736;23.346;2023-04-01T15:38:49;94080.19;;;16.27;100.00
20624;BME280;10471;42.736;23.346;2023-04-01T15:41:29;94075.59;;;16.12;100.00
20624;BME280;10471;42.736;23.346;2023-04-01T15:44:01;94082.63;;;15.77;100.00
20624;BME280;10471;42.736;23.346;2023-04-01T15:46:40;94118.34;;;15.17;100.00
20624;BME280;10471;42.736;23.346;2023-04-01T15:55:11;94298.03;;;11.53;100.00
20624;BME280;10471;42.736;23.346;2023-04-01T16:20:00;94353.59;;;9.01;100.00
20624;BME280;10471;42.736;23.346;2023-04-01T16:25:26;94350.78;;;9.24;100.00
20624;BME280;10471;42.736;23.346;2023-04-01T16:31:05;94353.78;;;9.31;100.00
20624;BME280;10471;42.736;23.346;2023-04-01T16:36:11;94355.97;;;9.29;100.00
20624;BME280;10471;42.736;23.346;2023-04-01T16:38:54;94359.25;;;9.21;100.00
20624;BME280;10471;42.736;23.346;2023-04-01T16:41:31;94356.41;;;9.18;100.00
20624;BME280;10471;42.736;23.346;2023-04-01T16:44:17;94361.59;;;9.10;100.00
20624;BME280;10471;42.736;23.346;2023-04-01T16:46:46;94363.72;;;9.08;100.00
20624;BME280;10471;42.736;23.346;2023-04-01T16:49:44;94368.00;;;9.04;100.00
20624;BME280;10471;42.736;23.346;2023-04-01T16:52:14;94375.97;;;8.99;100.00
20624;BME280;10471;42.736;23.346;2023-04-01T17:00:22;94380.41;;;8.85;100.00
20624;BME280;10471;42.736;23.346;2023-04-01T17:05:44;94397.38;;;8.74;100.00
20624;BME280;10471;42.736;23.346;2023-04-01T17:18:48;94438.09;;;8.58;100.00
20624;BME280;10471;42.736;23.346;2023-04-01T17:35:57;94432.56;;;8.41;100.00
20624;BME280;10471;42.736;23.346;2023-04-01T17:44:28;94442.63;;;8.34;100.00
20624;BME280;10471;42.736;23.346;2023-04-01T17:52:32;94468.03;;;8.20;100.00
20624;BME280;10471;42.736;23.346;2023-04-01T17:57:52;94497.94;;;8.19;100.00
20624;BME280;10471;42.736;23.346;2023-04-01T18:11:25;94497.59;;;8.02;100.00
20624;BME280;10471;42.736;23.346;2023-04-01T18:17:06;94491.34;;;7.98;100.00
20624;BME280;10471;42.736;23.346;2023-04-01T18:19:45;94495.53;;;7.99;100.00
20624;BME280;10471;42.736;23.346;2023-04-01T18:22:21;94509.06;;;8.06;100.00
20624;BME280;10471;42.736;23.346;2023-04-01T18:25:01;94510.94;;;8.06;100.00
20624;BME280;10471;42.736;23.346;2023-04-01T18:27:38;94534.75;;;8.09;100.00
20624;BME280;10471;42.736;23.346;2023-04-01T18:30:18;94516.91;;;8.11;100.00
20624;BME280;10471;42.736;23.346;2023-04-01T18:33:02;94521.34;;;8.11;100.00
20624;BME280;10471;42.736;23.346;2023-04-01T18:38:33;94514.78;;;8.13;100.00
20624;BME280;10471;42.736;23.346;2023-04-01T18:41:13;94524.19;;;8.19;100.00
20624;BME280;10471;42.736;23.346;2023-04-01T18:43:48;94521.84;;;8.18;100.00
20624;BME280;10471;42.736;23.346;2023-04-01T18:49:20;94513.63;;;8.24;100.00
20624;BME280;10471;42.736;23.346;2023-04-01T18:51:52;94532.56;;;8.21;100.00
20624;BME280;10471;42.736;23.346;2023-04-01T18:57:12;94528.84;;;8.22;100.00
20624;BME280;10471;42.736;23.346;2023-04-01T19:04:56;94564.81;;;8.22;100.00
20624;BME280;10471;42.736;23.346;2023-04-01T19:07:45;94552.41;;;8.27;100.00
20624;BME280;10471;42.736;23.346;2023-04-01T19:15:25;94555.31;;;8.26;100.00
20624;BME280;10471;42.736;23.346;2023-04-01T19:20:55;94562.44;;;8.25;100.00
20624;BME280;10471;42.736;23.346;2023-04-01T19:25:58;94576.31;;;8.26;100.00
20624;BME280;10471;42.736;23.346;2023-04-01T19:28:56;94575.53;;;8.25;100.00
20624;BME280;10471;42.736;23.346;2023-04-01T19:34:22;94582.09;;;8.28;100.00
20624;BME280;10471;42.736;23.346;2023-04-01T19:47:58;94612.06;;;8.22;100.00
20624;BME280;10471;42.736;23.346;2023-04-01T19:56:21;94608.03;;;8.29;100.00
20624;BME280;10471;42.736;23.346;2023-04-01T20:01:44;94595.38;;;8.36;100.00
20624;BME280;10471;42.736;23.346;2023-04-01T20:04:13;94601.09;;;8.38;100.00
20624;BME280;10471;42.736;23.346;2023-04-01T20:12:00;94603.28;;;8.54;100.00
20624;BME280;10471;42.736;23.346;2023-04-01T20:14:44;94601.44;;;8.55;100.00
20624;BME280;10471;42.736;23.346;2023-04-01T20:28:11;94606.16;;;8.35;100.00
20624;BME280;10471;42.736;23.346;2023-04-01T20:30:52;94617.44;;;8.35;100.00
20624;BME280;10471;42.736;23.346;2023-04-01T20:47:22;94641.53;;;8.14;100.00
20624;BME280;10471;42.736;23.346;2023-04-01T20:52:49;94644.38;;;8.12;100.00
20624;BME280;10471;42.736;23.346;2023-04-01T21:01:01;94640.25;;;8.06;100.00
20624;BME280;10471;42.736;23.346;2023-04-01T21:06:18;94655.31;;;7.96;100.00
20624;BME280;10471;42.736;23.346;2023-04-01T21:11:41;94652.03;;;7.80;100.00
20624;BME280;10471;42.736;23.346;2023-04-01T21:17:08;94655.81;;;7.70;100.00
20624;BME280;10471;42.736;23.346;2023-04-01T21:28:06;94667.75;;;7.80;100.00
20624;BME280;10471;42.736;23.346;2023-04-01T21:36:17;94665.19;;;7.76;100.00
20624;BME280;10471;42.736;23.346;2023-04-01T21:44:40;94675.53;;;7.62;100.00
20624;BME280;10471;42.736;23.346;2023-04-01T22:03:47;94657.22;;;7.52;100.00
20624;BME280;10471;42.736;23.346;2023-04-01T22:06:26;94656.81;;;7.40;100.00
20624;BME280;10471;42.736;23.346;2023-04-01T22:09:07;94646.34;;;7.40;100.00
20624;BME280;10471;42.736;23.346;2023-04-01T22:16:49;94647.25;;;7.54;100.00
20624;BME280;10471;42.736;23.346;2023-04-01T22:25:11;94654.78;;;7.66;100.00
20624;BME280;10471;42.736;23.346;2023-04-01T22:27:58;94658.97;;;7.67;100.00
20624;BME280;10471;42.736;23.346;2023-04-01T22:30:30;94650.63;;;7.60;100.00
20624;BME280;10471;42.736;23.346;2023-04-01T22:33:11;94658.22;;;7.61;100.00
20624;BME280;10471;42.736;23.346;2023-04-01T22:35:54;94658.53;;;7.55;100.00
20624;BME280;10471;42.736;23.346;2023-04-01T22:41:19;94652.75;;;7.58;100.00
20624;BME280;10471;42.736;23.346;2023-04-01T22:43:54;94648.66;;;7.42;100.00
20624;BME280;10471;42.736;23.346;2023-04-01T22:46:45;94653.97;;;7.32;100.00
20624;BME280;10471;42.736;23.346;2023-04-01T22:49:21;94653.50;;;7.25;100.00
20624;BME280;10471;42.736;23.346;2023-04-01T22:52:31;94659.53;;;7.25;100.00
20624;BME280;10471;42.736;23.346;2023-04-01T22:55:13;94660.84;;;7.23;100.00
20624;BME280;10471;42.736;23.346;2023-04-01T22:58:04;94663.97;;;7.25;100.00
20624;BME280;10471;42.736;23.346;2023-04-01T23:00:33;94670.53;;;7.22;100.00
20624;BME280;10471;42.736;23.346;2023-04-01T23:05:30;94671.59;;;7.21;100.00
20624;BME280;10471;42.736;23.346;2023-04-01T23:11:12;94684.50;;;7.08;100.00
20624;BME280;10471;42.736;23.346;2023-04-01T23:13:42;94685.28;;;7.09;100.00
20624;BME280;10471;42.736;23.346;2023-04-01T23:16:10;94682.19;;;7.02;100.00
20624;BME280;10471;42.736;23.346;2023-04-01T23:18:57;94678.28;;;6.94;100.00
20624;BME280;10471;42.736;23.346;2023-04-01T23:21:41;94679.91;;;6.85;100.00
20624;BME280;10471;42.736;23.346;2023-04-01T23:24:19;94683.09;;;6.72;100.00
20624;BME280;10471;42.736;23.346;2023-04-01T23:29:23;94674.28;;;6.49;100.00
20624;BME280;10471;42.736;23.346;2023-04-01T23:31:59;94675.34;;;6.43;100.00
20624;BME280;10471;42.736;23.346;2023-04-01T23:34:30;94675.13;;;6.24;100.00
20624;BME280;10471;42.736;23.346;2023-04-01T23:37:00;94670.94;;;6.23;100.00
20624;BME280;10471;42.736;23.346;2023-04-01T23:39:35;94672.25;;;6.26;100.00
20624;BME280;10471;42.736;23.346;2023-04-01T23:42:05;94678.28;;;6.31;100.00